sensor_id;sensor_type;location;lat;lon;timestamp;temperature;humidity
22379;DHT22;11357;49.990;7.370;2023-05-18T00:00:24;10.80;64.90
22379;DHT22;11357;49.990;7.370;2023-05-18T00:02:49;10.80;64.90
22379;DHT22;11357;49.990;7.370;2023-05-18T00:05:18;10.80;65.00
22379;DHT22;11357;49.990;7.370;2023-05-18T00:07:44;10.70;65.00
22379;DHT22;11357;49.990;7.370;2023-05-18T00:10:10;10.80;65.80
22379;DHT22;11357;49.990;7.370;2023-05-18T00:12:36;10.70;65.00
22379;DHT22;11357;49.990;7.370;2023-05-18T00:15:02;10.80;65.00
22379;DHT22;11357;49.990;7.370;2023-05-18T00:17:28;10.70;65.00
22379;DHT22;11357;49.990;7.370;2023-05-18T00:19:54;10.70;65.10
22379;DHT22;11357;49.990;7.370;2023-05-18T00:22:23;10.70;65.00
22379;DHT22;11357;49.990;7.370;2023-05-18T00:24:51;10.70;65.00
22379;DHT22;11357;49.990;7.370;2023-05-18T00:27:17;10.70;64.90
22379;DHT22;11357;49.990;7.370;2023-05-18T00:29:42;10.70;65.00
22379;DHT22;11357;49.990;7.370;2023-05-18T00:32:08;10.60;65.00
22379;DHT22;11357;49.990;7.370;2023-05-18T00:34:34;10.60;65.10
22379;DHT22;11357;49.990;7.370;2023-05-18T00:37:00;10.60;65.10
22379;DHT22;11357;49.990;7.370;2023-05-18T00:39:26;10.60;65.00
22379;DHT22;11357;49.990;7.370;2023-05-18T00:41:52;10.60;65.00
22379;DHT22;11357;49.990;7.370;2023-05-18T00:44:17;10.60;65.00
22379;DHT22;11357;49.990;7.370;2023-05-18T00:46:43;10.60;65.00
22379;DHT22;11357;49.990;7.370;2023-05-18T00:49:09;10.60;65.10
22379;DHT22;11357;49.990;7.370;2023-05-18T00:51:38;10.60;65.20
22379;DHT22;11357;49.990;7.370;2023-05-18T00:54:04;10.50;65.20
22379;DHT22;11357;49.990;7.370;2023-05-18T00:56:30;10.50;65.20
22379;DHT22;11357;49.990;7.370;2023-05-18T00:59:01;10.50;65.30
22379;DHT22;11357;49.990;7.370;2023-05-18T01:01:29;10.50;65.30
22379;DHT22;11357;49.990;7.370;2023-05-18T01:03:59;10.50;65.30
22379;DHT22;11357;49.990;7.370;2023-05-18T01:06:29;10.50;65.30
22379;DHT22;11357;49.990;7.370;2023-05-18T01:09:01;10.50;65.40
22379;DHT22;11357;49.990;7.370;2023-05-18T01:14:09;10.40;65.50
22379;DHT22;11357;49.990;7.370;2023-05-18T01:27:59;10.30;65.50
22379;DHT22;11357;49.990;7.370;2023-05-18T01:30:33;10.30;65.60
22379;DHT22;11357;49.990;7.370;2023-05-18T01:33:05;10.30;65.60
22379;DHT22;11357;49.990;7.370;2023-05-18T01:35:30;10.20;65.70
22379;DHT22;11357;49.990;7.370;2023-05-18T01:37:56;10.20;65.80
22379;DHT22;11357;49.990;7.370;2023-05-18T01:40:22;10.10;66.00
22379;DHT22;11357;49.990;7.370;2023-05-18T01:42:53;10.10;66.10
22379;DHT22;11357;49.990;7.370;2023-05-18T01:45:25;10.00;66.20
22379;DHT22;11357;49.990;7.370;2023-05-18T01:47:56;10.00;66.30
22379;DHT22;11357;49.990;7.370;2023-05-18T01:50:30;10.00;66.30
22379;DHT22;11357;49.990;7.370;2023-05-18T01:53:19;10.00;66.40
22379;DHT22;11357;49.990;7.370;2023-05-18T01:55:49;10.00;66.40
22379;DHT22;11357;49.990;7.370;2023-05-18T01:58:18;10.00;66.40
22379;DHT22;11357;49.990;7.370;2023-05-18T02:00:45;10.00;66.40
22379;DHT22;11357;49.990;7.370;2023-05-18T02:03:12;10.00;66.50
22379;DHT22;11357;49.990;7.370;2023-05-18T02:05:38;10.00;66.50
22379;DHT22;11357;49.990;7.370;2023-05-18T02:08:04;10.00;66.40
22379;DHT22;11357;49.990;7.370;2023-05-18T02:10:30;9.90;66.40
22379;DHT22;11357;49.990;7.370;2023-05-18T02:12:56;9.90;66.50
22379;DHT22;11357;49.990;7.370;2023-05-18T02:15:22;9.90;66.60
22379;DHT22;11357;49.990;7.370;2023-05-18T02:17:47;9.90;66.70
22379;DHT22;11357;49.990;7.370;2023-05-18T02:20:13;9.90;66.60
22379;DHT22;11357;49.990;7.370;2023-05-18T02:22:43;9.90;66.70
22379;DHT22;11357;49.990;7.370;2023-05-18T02:25:09;9.90;66.70
22379;DHT22;11357;49.990;7.370;2023-05-18T02:27:34;9.90;66.80
22379;DHT22;11357;49.990;7.370;2023-05-18T02:30:02;9.90;66.80
22379;DHT22;11357;49.990;7.370;2023-05-18T02:32:29;9.90;66.80
22379;DHT22;11357;49.990;7.370;2023-05-18T02:35:06;9.80;66.90
22379;DHT22;11357;49.990;7.370;2023-05-18T02:37:32;9.80;66.90
22379;DHT22;11357;49.990;7.370;2023-05-18T02:40:07;9.70;67.00
22379;DHT22;11357;49.990;7.370;2023-05-18T02:42:34;9.70;67.30
22379;DHT22;11357;49.990;7.370;2023-05-18T02:44:59;9.60;67.20
22379;DHT22;11357;49.990;7.370;2023-05-18T02:47:26;9.60;67.20
22379;DHT22;11357;49.990;7.370;2023-05-18T02:49:52;9.60;67.50
22379;DHT22;11357;49.990;7.370;2023-05-18T02:52:18;9.50;67.60
22379;DHT22;11357;49.990;7.370;2023-05-18T02:54:43;9.40;67.70
22379;DHT22;11357;49.990;7.370;2023-05-18T02:57:09;9.40;68.00
22379;DHT22;11357;49.990;7.370;2023-05-18T02:59:36;9.30;68.10
22379;DHT22;11357;49.990;7.370;2023-05-18T03:02:03;9.30;68.30
22379;DHT22;11357;49.990;7.370;2023-05-18T03:04:29;9.30;68.40
22379;DHT22;11357;49.990;7.370;2023-05-18T03:06:56;9.30;68.50
22379;DHT22;11357;49.990;7.370;2023-05-18T03:09:23;9.30;68.50
22379;DHT22;11357;49.990;7.370;2023-05-18T03:11:49;9.20;68.60
22379;DHT22;11357;49.990;7.370;2023-05-18T03:14:16;9.20;68.70
22379;DHT22;11357;49.990;7.370;2023-05-18T03:16:41;9.10;68.80
22379;DHT22;11357;49.990;7.370;2023-05-18T03:19:07;9.10;68.90
22379;DHT22;11357;49.990;7.370;2023-05-18T03:21:33;9.10;69.00
22379;DHT22;11357;49.990;7.370;2023-05-18T03:24:03;9.10;69.10
22379;DHT22;11357;49.990;7.370;2023-05-18T03:26:28;9.00;69.20
22379;DHT22;11357;49.990;7.370;2023-05-18T03:28:57;9.00;69.20
22379;DHT22;11357;49.990;7.370;2023-05-18T03:31:24;9.00;69.20
22379;DHT22;11357;49.990;7.370;2023-05-18T03:33:50;9.00;69.30
22379;DHT22;11357;49.990;7.370;2023-05-18T03:36:16;8.90;69.40
22379;DHT22;11357;49.990;7.370;2023-05-18T03:38:41;8.90;69.50
22379;DHT22;11357;49.990;7.370;2023-05-18T03:41:11;8.80;69.60
22379;DHT22;11357;49.990;7.370;2023-05-18T03:43:36;8.80;69.80
22379;DHT22;11357;49.990;7.370;2023-05-18T03:46:02;8.70;69.90
22379;DHT22;11357;49.990;7.370;2023-05-18T03:48:28;8.70;70.00
22379;DHT22;11357;49.990;7.370;2023-05-18T03:50:54;8.60;70.00
22379;DHT22;11357;49.990;7.370;2023-05-18T03:53:20;8.60;70.20
22379;DHT22;11357;49.990;7.370;2023-05-18T03:55:46;8.60;70.30
22379;DHT22;11357;49.990;7.370;2023-05-18T03:58:14;8.50;70.40
22379;DHT22;11357;49.990;7.370;2023-05-18T04:00:40;8.50;70.40
22379;DHT22;11357;49.990;7.370;2023-05-18T04:03:08;8.50;70.60
22379;DHT22;11357;49.990;7.370;2023-05-18T04:05:37;8.50;70.80
22379;DHT22;11357;49.990;7.370;2023-05-18T04:08:04;8.50;70.90
22379;DHT22;11357;49.990;7.370;2023-05-18T04:10:32;8.50;71.00
22379;DHT22;11357;49.990;7.370;2023-05-18T04:12:57;8.50;71.10
22379;DHT22;11357;49.990;7.370;2023-05-18T04:15:23;8.60;71.30
22379;DHT22;11357;49.990;7.370;2023-05-18T04:17:50;8.60;71.30
22379;DHT22;11357;49.990;7.370;2023-05-18T04:20:16;8.60;71.50
22379;DHT22;11357;49.990;7.370;2023-05-18T04:22:44;8.60;71.50
22379;DHT22;11357;49.990;7.370;2023-05-18T04:25:12;8.70;71.60
22379;DHT22;11357;49.990;7.370;2023-05-18T04:27:39;8.70;71.50
22379;DHT22;11357;49.990;7.370;2023-05-18T04:30:07;8.80;71.50
22379;DHT22;11357;49.990;7.370;2023-05-18T04:32:33;8.80;71.50
22379;DHT22;11357;49.990;7.370;2023-05-18T04:35:03;8.80;71.50
22379;DHT22;11357;49.990;7.370;2023-05-18T04:37:30;8.90;71.60
22379;DHT22;11357;49.990;7.370;2023-05-18T04:39:55;8.90;71.50
22379;DHT22;11357;49.990;7.370;2023-05-18T04:42:23;9.00;71.70
22379;DHT22;11357;49.990;7.370;2023-05-18T04:44:51;9.00;71.60
22379;DHT22;11357;49.990;7.370;2023-05-18T04:47:19;9.10;71.70
22379;DHT22;11357;49.990;7.370;2023-05-18T04:49:51;9.20;71.70
22379;DHT22;11357;49.990;7.370;2023-05-18T04:52:17;9.30;71.70
22379;DHT22;11357;49.990;7.370;2023-05-18T04:54:44;9.40;71.70
22379;DHT22;11357;49.990;7.370;2023-05-18T04:57:09;9.50;71.60
22379;DHT22;11357;49.990;7.370;2023-05-18T04:59:36;9.50;71.50
22379;DHT22;11357;49.990;7.370;2023-05-18T05:02:02;9.60;71.40
22379;DHT22;11357;49.990;7.370;2023-05-18T05:04:28;9.70;71.30
22379;DHT22;11357;49.990;7.370;2023-05-18T05:06:53;9.80;71.30
22379;DHT22;11357;49.990;7.370;2023-05-18T05:09:19;9.90;71.10
22379;DHT22;11357;49.990;7.370;2023-05-18T05:11:45;10.00;70.90
22379;DHT22;11357;49.990;7.370;2023-05-18T05:14:11;10.10;70.70
22379;DHT22;11357;49.990;7.370;2023-05-18T05:16:37;10.20;70.60
22379;DHT22;11357;49.990;7.370;2023-05-18T05:19:03;10.30;70.50
22379;DHT22;11357;49.990;7.370;2023-05-18T05:21:28;10.30;70.20
22379;DHT22;11357;49.990;7.370;2023-05-18T05:23:55;10.50;70.10
22379;DHT22;11357;49.990;7.370;2023-05-18T05:26:21;10.60;69.90
22379;DHT22;11357;49.990;7.370;2023-05-18T05:28:47;10.70;69.70
22379;DHT22;11357;49.990;7.370;2023-05-18T05:31:13;10.90;69.50
22379;DHT22;11357;49.990;7.370;2023-05-18T05:33:39;11.00;69.40
22379;DHT22;11357;49.990;7.370;2023-05-18T05:36:05;11.10;69.10
22379;DHT22;11357;49.990;7.370;2023-05-18T05:38:33;11.20;68.80
22379;DHT22;11357;49.990;7.370;2023-05-18T05:40:59;11.40;68.50
22379;DHT22;11357;49.990;7.370;2023-05-18T05:43:25;11.60;68.40
22379;DHT22;11357;49.990;7.370;2023-05-18T05:45:50;11.70;67.90
22379;DHT22;11357;49.990;7.370;2023-05-18T05:48:16;12.00;67.60
22379;DHT22;11357;49.990;7.370;2023-05-18T05:50:42;12.20;67.30
22379;DHT22;11357;49.990;7.370;2023-05-18T05:53:07;12.30;66.90
22379;DHT22;11357;49.990;7.370;2023-05-18T05:55:34;12.40;66.40
22379;DHT22;11357;49.990;7.370;2023-05-18T05:58:09;12.50;65.70
22379;DHT22;11357;49.990;7.370;2023-05-18T06:00:35;12.60;65.50
22379;DHT22;11357;49.990;7.370;2023-05-18T06:03:01;12.80;65.60
22379;DHT22;11357;49.990;7.370;2023-05-18T06:05:27;12.90;65.20
22379;DHT22;11357;49.990;7.370;2023-05-18T06:07:53;13.10;64.80
22379;DHT22;11357;49.990;7.370;2023-05-18T06:10:19;13.30;64.30
22379;DHT22;11357;49.990;7.370;2023-05-18T06:12:45;13.50;64.00
22379;DHT22;11357;49.990;7.370;2023-05-18T06:15:11;13.80;63.70
22379;DHT22;11357;49.990;7.370;2023-05-18T06:17:37;14.00;63.20
22379;DHT22;11357;49.990;7.370;2023-05-18T06:20:04;14.20;62.50
22379;DHT22;11357;49.990;7.370;2023-05-18T06:22:33;14.40;62.00
22379;DHT22;11357;49.990;7.370;2023-05-18T06:24:59;14.50;61.30
22379;DHT22;11357;49.990;7.370;2023-05-18T06:27:25;14.60;61.30
22379;DHT22;11357;49.990;7.370;2023-05-18T06:29:50;14.80;61.00
22379;DHT22;11357;49.990;7.370;2023-05-18T06:32:17;15.10;60.70
22379;DHT22;11357;49.990;7.370;2023-05-18T06:34:43;15.40;60.10
22379;DHT22;11357;49.990;7.370;2023-05-18T06:37:10;15.70;59.60
22379;DHT22;11357;49.990;7.370;2023-05-18T06:39:36;15.90;58.40
22379;DHT22;11357;49.990;7.370;2023-05-18T06:42:02;16.00;58.00
22379;DHT22;11357;49.990;7.370;2023-05-18T06:44:28;16.30;57.40
22379;DHT22;11357;49.990;7.370;2023-05-18T06:46:54;16.40;57.00
22379;DHT22;11357;49.990;7.370;2023-05-18T06:49:20;16.60;56.80
22379;DHT22;11357;49.990;7.370;2023-05-18T06:51:46;16.90;56.20
22379;DHT22;11357;49.990;7.370;2023-05-18T06:54:12;17.10;55.50
22379;DHT22;11357;49.990;7.370;2023-05-18T06:56:37;17.10;55.10
22379;DHT22;11357;49.990;7.370;2023-05-18T06:59:03;17.30;55.00
22379;DHT22;11357;49.990;7.370;2023-05-18T07:01:29;17.40;54.80
22379;DHT22;11357;49.990;7.370;2023-05-18T07:03:55;17.50;54.50
22379;DHT22;11357;49.990;7.370;2023-05-18T07:06:20;17.50;54.10
22379;DHT22;11357;49.990;7.370;2023-05-18T07:08:46;17.40;54.20
22379;DHT22;11357;49.990;7.370;2023-05-18T07:11:13;17.30;54.30
22379;DHT22;11357;49.990;7.370;2023-05-18T07:13:39;17.40;54.90
22379;DHT22;11357;49.990;7.370;2023-05-18T07:16:05;17.50;54.90
22379;DHT22;11357;49.990;7.370;2023-05-18T07:18:31;17.70;55.00
22379;DHT22;11357;49.990;7.370;2023-05-18T07:20:58;17.90;54.90
22379;DHT22;11357;49.990;7.370;2023-05-18T07:23:24;18.20;54.40
22379;DHT22;11357;49.990;7.370;2023-05-18T07:25:50;18.40;53.40
22379;DHT22;11357;49.990;7.370;2023-05-18T07:28:16;18.40;53.40
22379;DHT22;11357;49.990;7.370;2023-05-18T07:30:41;18.50;53.30
22379;DHT22;11357;49.990;7.370;2023-05-18T07:33:07;18.40;52.20
22379;DHT22;11357;49.990;7.370;2023-05-18T07:35:33;18.30;51.70
22379;DHT22;11357;49.990;7.370;2023-05-18T07:37:59;18.50;51.90
22379;DHT22;11357;49.990;7.370;2023-05-18T07:40:24;18.70;52.00
22379;DHT22;11357;49.990;7.370;2023-05-18T07:42:50;18.90;51.20
22379;DHT22;11357;49.990;7.370;2023-05-18T07:45:16;18.90;50.10
22379;DHT22;11357;49.990;7.370;2023-05-18T07:47:42;18.90;50.20
22379;DHT22;11357;49.990;7.370;2023-05-18T07:50:08;19.20;50.30
22379;DHT22;11357;49.990;7.370;2023-05-18T07:52:34;19.40;49.60
22379;DHT22;11357;49.990;7.370;2023-05-18T07:55:00;19.60;49.00
22379;DHT22;11357;49.990;7.370;2023-05-18T07:57:26;19.70;48.90
22379;DHT22;11357;49.990;7.370;2023-05-18T07:59:52;19.90;48.90
22379;DHT22;11357;49.990;7.370;2023-05-18T08:02:18;20.20;48.40
22379;DHT22;11357;49.990;7.370;2023-05-18T08:04:47;20.30;47.50
22379;DHT22;11357;49.990;7.370;2023-05-18T08:07:13;20.80;47.70
22379;DHT22;11357;49.990;7.370;2023-05-18T08:09:39;21.10;47.30
22379;DHT22;11357;49.990;7.370;2023-05-18T08:12:05;21.50;46.80
22379;DHT22;11357;49.990;7.370;2023-05-18T08:14:31;21.80;45.60
22379;DHT22;11357;49.990;7.370;2023-05-18T08:16:57;21.90;45.20
22379;DHT22;11357;49.990;7.370;2023-05-18T08:19:23;22.10;44.80
22379;DHT22;11357;49.990;7.370;2023-05-18T08:21:49;22.10;44.10
22379;DHT22;11357;49.990;7.370;2023-05-18T08:24:15;22.10;43.70
22379;DHT22;11357;49.990;7.370;2023-05-18T08:26:40;22.30;43.60
22379;DHT22;11357;49.990;7.370;2023-05-18T08:29:06;22.40;43.10
22379;DHT22;11357;49.990;7.370;2023-05-18T08:31:39;22.40;42.80
22379;DHT22;11357;49.990;7.370;2023-05-18T08:34:05;22.40;42.60
22379;DHT22;11357;49.990;7.370;2023-05-18T08:36:33;22.60;42.70
22379;DHT22;11357;49.990;7.370;2023-05-18T08:38:59;23.00;41.90
22379;DHT22;11357;49.990;7.370;2023-05-18T08:41:39;23.30;41.20
22379;DHT22;11357;49.990;7.370;2023-05-18T08:44:20;23.20;40.80
22379;DHT22;11357;49.990;7.370;2023-05-18T08:46:49;23.30;40.90
22379;DHT22;11357;49.990;7.370;2023-05-18T08:49:19;23.40;40.40
22379;DHT22;11357;49.990;7.370;2023-05-18T08:51:50;23.00;39.50
22379;DHT22;11357;49.990;7.370;2023-05-18T08:54:20;22.40;39.80
22379;DHT22;11357;49.990;7.370;2023-05-18T08:56:46;21.70;40.50
22379;DHT22;11357;49.990;7.370;2023-05-18T08:59:15;21.20;41.00
22379;DHT22;11357;49.990;7.370;2023-05-18T09:01:43;20.90;41.10
22379;DHT22;11357;49.990;7.370;2023-05-18T09:04:09;21.00;41.10
22379;DHT22;11357;49.990;7.370;2023-05-18T09:06:36;21.20;41.40
22379;DHT22;11357;49.990;7.370;2023-05-18T09:09:02;21.30;41.40
22379;DHT22;11357;49.990;7.370;2023-05-18T09:11:33;21.30;40.10
22379;DHT22;11357;49.990;7.370;2023-05-18T09:13:59;21.50;40.00
22379;DHT22;11357;49.990;7.370;2023-05-18T09:16:25;21.80;40.20
22379;DHT22;11357;49.990;7.370;2023-05-18T09:18:52;22.20;40.00
22379;DHT22;11357;49.990;7.370;2023-05-18T09:21:18;22.40;39.90
22379;DHT22;11357;49.990;7.370;2023-05-18T09:23:44;22.50;39.40
22379;DHT22;11357;49.990;7.370;2023-05-18T09:26:09;22.80;38.90
22379;DHT22;11357;49.990;7.370;2023-05-18T09:28:40;23.00;39.20
22379;DHT22;11357;49.990;7.370;2023-05-18T09:31:07;23.30;39.30
22379;DHT22;11357;49.990;7.370;2023-05-18T09:33:37;23.40;39.60
22379;DHT22;11357;49.990;7.370;2023-05-18T09:36:04;24.00;39.60
22379;DHT22;11357;49.990;7.370;2023-05-18T09:38:39;24.50;38.40
22379;DHT22;11357;49.990;7.370;2023-05-18T09:41:12;24.80;37.50
22379;DHT22;11357;49.990;7.370;2023-05-18T09:43:40;24.90;36.90
22379;DHT22;11357;49.990;7.370;2023-05-18T09:46:10;25.00;37.10
22379;DHT22;11357;49.990;7.370;2023-05-18T09:48:55;24.90;36.70
22379;DHT22;11357;49.990;7.370;2023-05-18T09:51:21;24.70;37.10
22379;DHT22;11357;49.990;7.370;2023-05-18T09:53:53;24.40;37.30
22379;DHT22;11357;49.990;7.370;2023-05-18T09:56:34;24.00;36.50
22379;DHT22;11357;49.990;7.370;2023-05-18T09:59:11;23.30;37.40
22379;DHT22;11357;49.990;7.370;2023-05-18T10:01:57;23.00;38.70
22379;DHT22;11357;49.990;7.370;2023-05-18T10:04:39;23.30;38.80
22379;DHT22;11357;49.990;7.370;2023-05-18T10:07:15;23.40;38.20
22379;DHT22;11357;49.990;7.370;2023-05-18T10:09:45;23.40;38.30
22379;DHT22;11357;49.990;7.370;2023-05-18T10:12:16;23.20;38.40
22379;DHT22;11357;49.990;7.370;2023-05-18T10:14:44;23.40;38.60
22379;DHT22;11357;49.990;7.370;2023-05-18T10:17:14;23.80;38.80
22379;DHT22;11357;49.990;7.370;2023-05-18T10:19:41;24.30;38.00
22379;DHT22;11357;49.990;7.370;2023-05-18T10:22:07;24.30;37.80
22379;DHT22;11357;49.990;7.370;2023-05-18T10:24:38;24.00;37.90
22379;DHT22;11357;49.990;7.370;2023-05-18T10:27:08;23.80;37.70
22379;DHT22;11357;49.990;7.370;2023-05-18T10:29:35;23.70;37.90
22379;DHT22;11357;49.990;7.370;2023-05-18T10:32:05;24.00;38.70
22379;DHT22;11357;49.990;7.370;2023-05-18T10:34:32;24.30;38.10
22379;DHT22;11357;49.990;7.370;2023-05-18T10:37:02;24.20;37.70
22379;DHT22;11357;49.990;7.370;2023-05-18T10:39:33;24.60;37.60
22379;DHT22;11357;49.990;7.370;2023-05-18T10:42:01;25.20;37.10
22379;DHT22;11357;49.990;7.370;2023-05-18T10:44:28;25.40;36.00
22379;DHT22;11357;49.990;7.370;2023-05-18T10:46:55;25.60;36.10
22379;DHT22;11357;49.990;7.370;2023-05-18T10:49:21;25.70;35.40
22379;DHT22;11357;49.990;7.370;2023-05-18T10:51:52;26.00;35.50
22379;DHT22;11357;49.990;7.370;2023-05-18T10:54:21;26.50;35.20
22379;DHT22;11357;49.990;7.370;2023-05-18T10:56:51;27.00;35.10
22379;DHT22;11357;49.990;7.370;2023-05-18T10:59:17;27.10;34.60
22379;DHT22;11357;49.990;7.370;2023-05-18T11:01:44;27.40;34.50
22379;DHT22;11357;49.990;7.370;2023-05-18T11:04:11;28.10;34.70
22379;DHT22;11357;49.990;7.370;2023-05-18T11:06:38;28.60;34.30
22379;DHT22;11357;49.990;7.370;2023-05-18T11:09:04;28.50;34.20
22379;DHT22;11357;49.990;7.370;2023-05-18T11:11:52;28.60;33.90
22379;DHT22;11357;49.990;7.370;2023-05-18T11:14:30;28.00;33.40
22379;DHT22;11357;49.990;7.370;2023-05-18T11:28:01;28.30;33.10
22379;DHT22;11357;49.990;7.370;2023-05-18T11:33:15;26.70;33.10
22379;DHT22;11357;49.990;7.370;2023-05-18T11:36:12;26.50;33.70
22379;DHT22;11357;49.990;7.370;2023-05-18T11:39:02;27.00;34.00
22379;DHT22;11357;49.990;7.370;2023-05-18T11:41:30;26.80;33.70
22379;DHT22;11357;49.990;7.370;2023-05-18T11:44:22;26.80;34.40
22379;DHT22;11357;49.990;7.370;2023-05-18T11:47:06;27.00;34.40
22379;DHT22;11357;49.990;7.370;2023-05-18T11:52:20;26.50;33.90
22379;DHT22;11357;49.990;7.370;2023-05-18T11:54:53;26.60;34.90
22379;DHT22;11357;49.990;7.370;2023-05-18T11:57:28;27.10;34.50
22379;DHT22;11357;49.990;7.370;2023-05-18T12:00:12;27.00;34.10
22379;DHT22;11357;49.990;7.370;2023-05-18T12:02:38;26.60;34.40
22379;DHT22;11357;49.990;7.370;2023-05-18T12:05:08;26.00;35.10
22379;DHT22;11357;49.990;7.370;2023-05-18T12:07:34;25.20;35.50
22379;DHT22;11357;49.990;7.370;2023-05-18T12:10:11;25.10;36.40
22379;DHT22;11357;49.990;7.370;2023-05-18T12:12:39;25.30;36.40
22379;DHT22;11357;49.990;7.370;2023-05-18T12:15:07;25.60;36.10
22379;DHT22;11357;49.990;7.370;2023-05-18T12:20:11;25.50;35.20
22379;DHT22;11357;49.990;7.370;2023-05-18T12:22:42;26.00;35.00
22379;DHT22;11357;49.990;7.370;2023-05-18T12:25:15;26.50;35.40
22379;DHT22;11357;49.990;7.370;2023-05-18T12:27:45;26.90;35.10
22379;DHT22;11357;49.990;7.370;2023-05-18T12:30:25;27.10;34.80
22379;DHT22;11357;49.990;7.370;2023-05-18T12:32:59;27.20;34.70
22379;DHT22;11357;49.990;7.370;2023-05-18T12:35:39;27.70;34.30
22379;DHT22;11357;49.990;7.370;2023-05-18T12:38:18;27.90;33.60
22379;DHT22;11357;49.990;7.370;2023-05-18T12:40:45;27.60;34.20
22379;DHT22;11357;49.990;7.370;2023-05-18T12:43:13;27.70;34.40
22379;DHT22;11357;49.990;7.370;2023-05-18T12:45:39;27.70;34.30
22379;DHT22;11357;49.990;7.370;2023-05-18T12:48:09;27.00;33.60
22379;DHT22;11357;49.990;7.370;2023-05-18T12:50:36;26.70;34.10
22379;DHT22;11357;49.990;7.370;2023-05-18T12:53:09;26.70;34.40
22379;DHT22;11357;49.990;7.370;2023-05-18T12:55:39;26.80;34.70
22379;DHT22;11357;49.990;7.370;2023-05-18T12:58:10;26.70;34.50
22379;DHT22;11357;49.990;7.370;2023-05-18T13:00:43;26.70;34.20
22379;DHT22;11357;49.990;7.370;2023-05-18T13:03:15;26.60;34.00
22379;DHT22;11357;49.990;7.370;2023-05-18T13:05:41;26.50;34.20
22379;DHT22;11357;49.990;7.370;2023-05-18T13:08:16;26.70;34.50
22379;DHT22;11357;49.990;7.370;2023-05-18T13:10:46;26.80;34.00
22379;DHT22;11357;49.990;7.370;2023-05-18T13:13:15;26.30;34.20
22379;DHT22;11357;49.990;7.370;2023-05-18T13:15:42;26.40;34.90
22379;DHT22;11357;49.990;7.370;2023-05-18T13:18:09;26.80;34.90
22379;DHT22;11357;49.990;7.370;2023-05-18T13:20:48;27.00;34.00
22379;DHT22;11357;49.990;7.370;2023-05-18T13:23:20;26.70;34.10
22379;DHT22;11357;49.990;7.370;2023-05-18T13:25:47;26.80;33.80
22379;DHT22;11357;49.990;7.370;2023-05-18T13:28:15;26.60;33.90
22379;DHT22;11357;49.990;7.370;2023-05-18T13:30:42;26.50;34.40
22379;DHT22;11357;49.990;7.370;2023-05-18T13:33:08;26.50;33.90
22379;DHT22;11357;49.990;7.370;2023-05-18T13:35:38;26.50;34.60
22379;DHT22;11357;49.990;7.370;2023-05-18T13:38:08;26.40;34.50
22379;DHT22;11357;49.990;7.370;2023-05-18T13:40:34;26.10;34.50
22379;DHT22;11357;49.990;7.370;2023-05-18T13:43:00;26.10;35.50
22379;DHT22;11357;49.990;7.370;2023-05-18T13:45:26;26.10;34.70
22379;DHT22;11357;49.990;7.370;2023-05-18T13:47:52;26.10;34.20
22379;DHT22;11357;49.990;7.370;2023-05-18T13:50:22;26.20;34.50
22379;DHT22;11357;49.990;7.370;2023-05-18T13:52:48;26.30;34.00
22379;DHT22;11357;49.990;7.370;2023-05-18T13:55:14;26.40;34.00
22379;DHT22;11357;49.990;7.370;2023-05-18T13:57:40;26.40;34.10
22379;DHT22;11357;49.990;7.370;2023-05-18T14:00:06;26.40;34.00
22379;DHT22;11357;49.990;7.370;2023-05-18T14:02:41;26.40;34.20
22379;DHT22;11357;49.990;7.370;2023-05-18T14:05:08;26.40;34.30
22379;DHT22;11357;49.990;7.370;2023-05-18T14:07:38;26.40;34.40
22379;DHT22;11357;49.990;7.370;2023-05-18T14:10:04;26.50;34.60
22379;DHT22;11357;49.990;7.370;2023-05-18T14:12:31;26.20;34.30
22379;DHT22;11357;49.990;7.370;2023-05-18T14:14:58;25.80;34.60
22379;DHT22;11357;49.990;7.370;2023-05-18T14:17:30;25.60;35.30
22379;DHT22;11357;49.990;7.370;2023-05-18T14:20:00;25.50;34.70
22379;DHT22;11357;49.990;7.370;2023-05-18T14:22:26;25.70;34.70
22379;DHT22;11357;49.990;7.370;2023-05-18T14:24:52;25.90;34.60
22379;DHT22;11357;49.990;7.370;2023-05-18T14:27:18;25.90;34.70
22379;DHT22;11357;49.990;7.370;2023-05-18T14:29:47;25.80;34.60
22379;DHT22;11357;49.990;7.370;2023-05-18T14:32:13;25.40;35.00
22379;DHT22;11357;49.990;7.370;2023-05-18T14:34:39;25.20;35.60
22379;DHT22;11357;49.990;7.370;2023-05-18T14:37:05;25.10;35.30
22379;DHT22;11357;49.990;7.370;2023-05-18T14:39:31;24.90;35.80
22379;DHT22;11357;49.990;7.370;2023-05-18T14:41:57;24.80;36.30
22379;DHT22;11357;49.990;7.370;2023-05-18T14:44:22;24.90;36.30
22379;DHT22;11357;49.990;7.370;2023-05-18T14:46:48;24.80;36.30
22379;DHT22;11357;49.990;7.370;2023-05-18T14:49:14;24.90;36.60
22379;DHT22;11357;49.990;7.370;2023-05-18T14:51:40;25.20;36.70
22379;DHT22;11357;49.990;7.370;2023-05-18T14:54:06;25.30;36.10
22379;DHT22;11357;49.990;7.370;2023-05-18T14:56:31;25.20;36.10
22379;DHT22;11357;49.990;7.370;2023-05-18T14:58:57;24.70;36.30
22379;DHT22;11357;49.990;7.370;2023-05-18T15:01:23;24.30;36.80
22379;DHT22;11357;49.990;7.370;2023-05-18T15:03:49;23.80;36.70
22379;DHT22;11357;49.990;7.370;2023-05-18T15:06:15;23.30;37.30
22379;DHT22;11357;49.990;7.370;2023-05-18T15:08:40;22.90;38.00
22379;DHT22;11357;49.990;7.370;2023-05-18T15:11:06;22.80;38.60
22379;DHT22;11357;49.990;7.370;2023-05-18T15:13:32;23.00;38.40
22379;DHT22;11357;49.990;7.370;2023-05-18T15:15:57;23.10;38.50
22379;DHT22;11357;49.990;7.370;2023-05-18T15:18:23;23.20;38.60
22379;DHT22;11357;49.990;7.370;2023-05-18T15:20:49;23.50;38.80
22379;DHT22;11357;49.990;7.370;2023-05-18T15:23:15;23.60;38.30
22379;DHT22;11357;49.990;7.370;2023-05-18T15:25:41;23.30;38.80
22379;DHT22;11357;49.990;7.370;2023-05-18T15:28:06;23.20;38.60
22379;DHT22;11357;49.990;7.370;2023-05-18T15:30:33;23.20;38.90
22379;DHT22;11357;49.990;7.370;2023-05-18T15:33:00;22.90;39.60
22379;DHT22;11357;49.990;7.370;2023-05-18T15:35:30;22.70;39.50
22379;DHT22;11357;49.990;7.370;2023-05-18T15:37:56;22.50;39.80
22379;DHT22;11357;49.990;7.370;2023-05-18T15:40:22;22.50;40.10
22379;DHT22;11357;49.990;7.370;2023-05-18T15:42:48;22.50;40.10
22379;DHT22;11357;49.990;7.370;2023-05-18T15:45:14;22.70;40.40
22379;DHT22;11357;49.990;7.370;2023-05-18T15:47:40;22.90;40.00
22379;DHT22;11357;49.990;7.370;2023-05-18T15:50:07;23.00;39.80
22379;DHT22;11357;49.990;7.370;2023-05-18T15:52:33;23.00;39.60
22379;DHT22;11357;49.990;7.370;2023-05-18T15:54:59;22.90;39.30
22379;DHT22;11357;49.990;7.370;2023-05-18T15:57:24;22.80;39.20
22379;DHT22;11357;49.990;7.370;2023-05-18T15:59:50;22.80;39.30
22379;DHT22;11357;49.990;7.370;2023-05-18T16:02:16;22.80;39.10
22379;DHT22;11357;49.990;7.370;2023-05-18T16:04:42;22.90;39.00
22379;DHT22;11357;49.990;7.370;2023-05-18T16:07:07;22.90;39.10
22379;DHT22;11357;49.990;7.370;2023-05-18T16:09:33;23.10;39.10
22379;DHT22;11357;49.990;7.370;2023-05-18T16:11:59;23.10;38.20